Terminal Aerodrome Forecast
Issued by NWS Houston/Galveston TX

Current Version | Previous Version | Text Only | Print | Product List | Glossary Off
Versions: 1 2 3 4 5 6 7 8 9 10 11 12 13 14 15 16 17 18 19 20 21 22 23 24 25 26 27 28 29 30 31 32 33 34 35 36 37 38 39 40 41 42 43 44 45 46 47 48 49 50

000
FTUS44 KHGX 180302 AAB
TAFHOU
TAF AMD
KHOU 180302Z 1803/1824 07011KT 6SM -SHRA BR FEW008 BKN070
      TEMPO 1803/1806 4SM TSRA BR BKN015CB
     FM180600 09005KT P6SM VCTS FEW025CB BKN040 BKN250
     FM181000 VRB04KT P6SM SCT015 BKN120
     FM181500 16008KT P6SM VCSH SCT025 BKN250
     FM181900 20009KT P6SM VCTS FEW015 SCT025CB OVC120=

USA.gov is the U.S. government's official web portal to all federal, state and local government web resources and services.